createdAt,value
2018-03-31T00:00:43.970Z,3.70
2018-03-31T00:03:11.115Z,3.65
2018-03-31T00:05:38.277Z,3.68
2018-03-31T00:08:05.460Z,3.57
2018-03-31T00:10:32.713Z,3.63
2018-03-31T00:12:59.830Z,3.73
2018-03-31T00:15:27.078Z,3.57
2018-03-31T00:17:54.255Z,3.69
2018-03-31T00:20:21.442Z,3.70
2018-03-31T00:22:48.589Z,3.65
2018-03-31T00:25:15.758Z,3.62
2018-03-31T00:27:42.912Z,3.43
2018-03-31T00:30:10.060Z,3.51
2018-03-31T00:32:37.214Z,3.46
2018-03-31T00:35:04.452Z,3.48
2018-03-31T00:37:31.598Z,3.48
2018-03-31T00:39:58.749Z,3.39
2018-03-31T00:42:25.884Z,3.46
2018-03-31T00:44:53.119Z,3.37
2018-03-31T00:47:20.281Z,3.53
2018-03-31T00:49:47.433Z,3.50
2018-03-31T00:52:14.542Z,3.42
2018-03-31T00:54:41.700Z,3.42
2018-03-31T00:57:08.886Z,3.29
2018-03-31T00:59:36.041Z,3.34
2018-03-31T01:02:03.174Z,3.25
2018-03-31T01:04:30.354Z,3.13
2018-03-31T01:06:57.507Z,3.28
2018-03-31T01:09:24.714Z,3.20
2018-03-31T01:11:51.837Z,3.19
2018-03-31T01:14:18.995Z,3.26
2018-03-31T01:16:46.172Z,3.19
2018-03-31T01:19:13.378Z,3.15
2018-03-31T01:21:40.539Z,3.15
2018-03-31T01:24:07.822Z,3.18
2018-03-31T01:26:34.967Z,3.24
2018-03-31T01:29:02.097Z,3.23
2018-03-31T01:31:29.259Z,3.13
2018-03-31T01:33:56.397Z,3.09
2018-03-31T01:36:23.564Z,3.14
2018-03-31T01:38:50.741Z,3.07
2018-03-31T01:41:17.894Z,3.12
2018-03-31T01:43:45.140Z,3.09
2018-03-31T01:46:12.301Z,3.12
2018-03-31T01:48:39.453Z,3.05
2018-03-31T01:51:06.626Z,3.03
2018-03-31T01:53:33.796Z,3.01
2018-03-31T01:56:01.035Z,2.95
2018-03-31T01:58:28.206Z,2.97
2018-03-31T02:00:55.345Z,2.94
2018-03-31T02:03:22.494Z,2.86
2018-03-31T02:05:49.640Z,3.02
2018-03-31T02:08:16.780Z,2.94
2018-03-31T02:10:45.546Z,2.86
2018-03-31T02:13:12.737Z,2.88
2018-03-31T02:15:40.044Z,2.88
2018-03-31T02:18:07.240Z,2.89
2018-03-31T02:20:34.590Z,2.86
2018-03-31T02:23:01.750Z,2.80
2018-03-31T02:25:28.929Z,2.78
2018-03-31T02:27:56.069Z,2.76
2018-03-31T02:30:23.248Z,2.75
2018-03-31T02:32:50.389Z,2.60
2018-03-31T02:35:17.608Z,2.73
2018-03-31T02:37:44.766Z,2.59
2018-03-31T02:40:11.922Z,2.79
2018-03-31T02:42:39.077Z,2.90
2018-03-31T02:45:06.242Z,2.80
2018-03-31T02:47:33.425Z,2.72
2018-03-31T02:50:00.559Z,2.66
2018-03-31T02:52:27.715Z,2.78
2018-03-31T02:54:54.885Z,2.65
2018-03-31T02:57:22.047Z,2.60
2018-03-31T02:59:49.192Z,2.57
2018-03-31T03:02:16.381Z,2.72
2018-03-31T03:04:43.532Z,2.77
2018-03-31T03:07:10.706Z,2.71
2018-03-31T03:09:37.840Z,2.72
2018-03-31T03:12:05.014Z,2.76
2018-03-31T03:14:32.176Z,2.64
2018-03-31T03:16:59.378Z,2.64
2018-03-31T03:19:26.537Z,2.73
2018-03-31T03:21:53.732Z,2.71
2018-03-31T03:24:20.913Z,2.85
2018-03-31T03:26:48.077Z,2.68
2018-03-31T03:29:15.232Z,2.87
2018-03-31T03:31:42.415Z,2.76
2018-03-31T03:34:09.558Z,2.85
2018-03-31T03:36:36.721Z,2.84
2018-03-31T03:39:04.049Z,2.77
2018-03-31T03:41:31.262Z,2.78
2018-03-31T03:43:58.400Z,2.80
2018-03-31T03:46:25.621Z,2.75
2018-03-31T03:48:52.776Z,2.82
2018-03-31T03:51:19.953Z,2.93
2018-03-31T03:53:47.134Z,2.99
2018-03-31T03:56:14.291Z,2.78
2018-03-31T03:58:41.429Z,2.99
2018-03-31T04:01:08.611Z,3.01
2018-03-31T04:03:35.745Z,2.99
2018-03-31T04:06:02.957Z,2.92
2018-03-31T04:08:30.163Z,3.04
2018-03-31T04:10:57.312Z,3.03
2018-03-31T04:13:24.514Z,2.80
2018-03-31T04:15:51.705Z,2.88
2018-03-31T04:18:18.874Z,2.83
2018-03-31T04:20:46.061Z,2.81
2018-03-31T04:23:13.217Z,2.83
2018-03-31T04:25:40.466Z,3.01
2018-03-31T04:28:07.722Z,2.87
2018-03-31T04:30:34.864Z,2.90
2018-03-31T04:33:02.026Z,2.99
2018-03-31T04:35:29.214Z,2.99
2018-03-31T04:37:56.356Z,3.07
2018-03-31T04:40:23.511Z,3.05
2018-03-31T04:42:50.728Z,3.10
2018-03-31T04:45:17.849Z,2.93
2018-03-31T04:47:45.053Z,3.05
2018-03-31T04:50:12.229Z,3.15
2018-03-31T04:52:39.440Z,2.94
2018-03-31T04:55:06.573Z,2.90
2018-03-31T04:57:33.746Z,2.99
2018-03-31T05:00:00.910Z,2.93
2018-03-31T05:02:28.137Z,3.14
2018-03-31T05:04:55.312Z,3.20
2018-03-31T05:07:37.930Z,2.95
2018-03-31T05:10:05.110Z,3.04
2018-03-31T05:12:32.297Z,3.02
2018-03-31T05:14:59.432Z,3.11
2018-03-31T05:17:26.615Z,3.14
2018-03-31T05:19:53.778Z,3.16
2018-03-31T05:22:21.079Z,3.16
2018-03-31T05:24:48.259Z,3.09
2018-03-31T05:27:15.431Z,3.11
2018-03-31T05:29:42.583Z,3.07
2018-03-31T05:32:09.763Z,3.12
2018-03-31T05:34:36.909Z,3.02
2018-03-31T05:37:04.143Z,3.09
2018-03-31T05:39:31.337Z,3.15
2018-03-31T05:41:58.495Z,3.02
2018-03-31T05:44:25.698Z,3.13
2018-03-31T05:46:52.869Z,3.13
2018-03-31T05:49:20.030Z,3.13
2018-03-31T05:51:47.211Z,3.02
2018-03-31T05:54:14.387Z,3.11
2018-03-31T05:56:41.556Z,3.02
2018-03-31T05:59:08.714Z,3.08
2018-03-31T06:01:36.000Z,3.13
2018-03-31T06:04:03.237Z,2.84
2018-03-31T06:06:30.709Z,3.07
2018-03-31T06:08:57.926Z,3.13
2018-03-31T06:11:25.053Z,3.05
2018-03-31T06:13:52.320Z,3.03
2018-03-31T06:16:19.473Z,3.29
2018-03-31T06:18:46.607Z,3.31
2018-03-31T06:21:13.749Z,3.20
2018-03-31T06:23:40.961Z,3.37
2018-03-31T06:26:08.129Z,3.34
2018-03-31T06:28:35.332Z,3.57
2018-03-31T06:31:02.503Z,3.40
2018-03-31T06:33:29.751Z,3.55
2018-03-31T06:35:56.909Z,3.55
2018-03-31T06:38:24.095Z,3.35
2018-03-31T06:40:51.287Z,3.22
2018-03-31T06:43:18.418Z,3.33
2018-03-31T06:45:45.609Z,3.46
2018-03-31T06:48:12.758Z,3.34
2018-03-31T06:50:39.946Z,3.13
2018-03-31T06:53:07.167Z,3.33
2018-03-31T06:55:34.348Z,3.45
2018-03-31T06:58:01.526Z,3.60
2018-03-31T07:00:28.751Z,3.58
2018-03-31T07:02:55.897Z,3.64
2018-03-31T07:05:23.122Z,3.48
2018-03-31T07:07:50.258Z,3.71
2018-03-31T07:10:17.543Z,3.70
2018-03-31T07:12:44.715Z,3.82
2018-03-31T07:15:12.059Z,3.86
2018-03-31T07:17:40.839Z,3.82
2018-03-31T07:20:08.098Z,3.81
2018-03-31T07:22:35.373Z,3.82
2018-03-31T07:25:02.725Z,3.80
2018-03-31T07:27:29.942Z,3.77
2018-03-31T07:30:00.358Z,3.80
2018-03-31T07:32:27.683Z,3.76
2018-03-31T07:34:55.945Z,3.65
2018-03-31T07:37:23.146Z,3.40
2018-03-31T07:39:50.360Z,3.47
2018-03-31T07:42:17.710Z,3.55
2018-03-31T07:44:46.321Z,3.56
2018-03-31T07:47:14.523Z,3.67
2018-03-31T07:49:43.652Z,3.67
2018-03-31T07:52:12.257Z,3.56
2018-03-31T07:54:42.239Z,3.50
2018-03-31T07:59:46.983Z,3.54
2018-03-31T08:02:14.199Z,3.58
2018-03-31T08:04:41.395Z,3.41
2018-03-31T08:07:09.473Z,3.24
2018-03-31T08:09:36.749Z,3.18
2018-03-31T08:12:05.486Z,3.07
2018-03-31T08:14:33.843Z,3.20
2018-03-31T08:17:01.213Z,3.22
2018-03-31T08:19:30.052Z,3.26
2018-03-31T08:21:57.245Z,3.29
2018-03-31T08:24:24.475Z,3.42
2018-03-31T08:26:51.648Z,3.40
2018-03-31T08:29:18.817Z,3.41
2018-03-31T08:31:46.022Z,3.51
2018-03-31T08:34:13.189Z,3.57
2018-03-31T08:36:40.342Z,3.51
2018-03-31T08:39:07.557Z,3.58
2018-03-31T08:41:34.753Z,3.73
2018-03-31T08:44:01.950Z,3.78
2018-03-31T08:46:29.105Z,3.84
2018-03-31T08:48:56.285Z,3.88
2018-03-31T08:51:23.486Z,3.90
2018-03-31T08:53:50.690Z,3.88
2018-03-31T08:56:17.844Z,3.86
2018-03-31T08:58:45.158Z,3.86
2018-03-31T09:01:12.334Z,3.87
2018-03-31T09:03:39.477Z,3.89
2018-03-31T09:06:06.692Z,3.91
2018-03-31T09:08:33.843Z,3.91
2018-03-31T09:11:01.096Z,3.97
2018-03-31T09:13:28.325Z,4.00
2018-03-31T09:15:55.535Z,4.09
2018-03-31T09:18:22.711Z,4.10
2018-03-31T09:20:49.895Z,4.05
2018-03-31T09:23:17.060Z,4.05
2018-03-31T09:25:44.225Z,4.08
2018-03-31T09:28:11.418Z,3.95
2018-03-31T09:30:38.610Z,3.98
2018-03-31T09:33:05.754Z,4.04
2018-03-31T09:35:32.929Z,4.11
2018-03-31T09:38:00.138Z,4.11
2018-03-31T09:40:27.325Z,4.11
2018-03-31T09:42:54.482Z,4.09
2018-03-31T09:45:21.678Z,4.12
2018-03-31T09:47:48.866Z,4.16
2018-03-31T09:50:16.055Z,4.21
2018-03-31T09:52:43.270Z,4.27
2018-03-31T09:55:10.442Z,4.29
2018-03-31T09:57:37.610Z,4.37
2018-03-31T10:00:04.758Z,4.48
2018-03-31T10:02:31.880Z,4.56
2018-03-31T10:04:59.094Z,4.65
2018-03-31T10:07:26.244Z,4.66
2018-03-31T10:09:53.397Z,4.56
2018-03-31T10:12:20.618Z,4.65
2018-03-31T10:14:47.794Z,4.63
2018-03-31T10:17:14.970Z,4.60
2018-03-31T10:19:42.206Z,4.63
2018-03-31T10:22:09.371Z,4.53
2018-03-31T10:24:36.560Z,4.29
2018-03-31T10:27:04.146Z,4.28
2018-03-31T10:29:31.288Z,4.31
2018-03-31T10:31:58.482Z,4.32
2018-03-31T10:34:25.619Z,4.25
2018-03-31T10:36:52.784Z,4.08
2018-03-31T10:39:19.966Z,4.24
2018-03-31T10:41:47.126Z,4.04
2018-03-31T10:44:14.302Z,4.14
2018-03-31T10:46:41.453Z,4.04
2018-03-31T10:49:08.606Z,4.08
2018-03-31T10:51:35.815Z,4.17
2018-03-31T10:54:02.926Z,4.13
2018-03-31T10:56:30.090Z,4.17
2018-03-31T10:58:57.283Z,4.14
2018-03-31T11:01:24.451Z,4.14
2018-03-31T11:03:51.574Z,4.10
2018-03-31T11:06:18.739Z,4.11
2018-03-31T11:08:45.970Z,4.03
2018-03-31T11:11:13.125Z,4.01
2018-03-31T11:13:40.287Z,4.03
2018-03-31T11:16:07.474Z,4.02
2018-03-31T11:18:34.695Z,4.04
2018-03-31T11:21:01.868Z,4.07
2018-03-31T11:23:29.046Z,4.09
2018-03-31T11:25:56.204Z,4.03
2018-03-31T11:28:23.359Z,4.10
2018-03-31T11:30:50.526Z,4.10
2018-03-31T11:33:17.680Z,4.03
2018-03-31T11:35:44.844Z,4.02
2018-03-31T11:38:24.396Z,3.97
2018-03-31T11:40:51.551Z,4.05
2018-03-31T11:49:37.540Z,4.11
2018-03-31T11:52:07.991Z,4.08
2018-03-31T11:54:35.098Z,3.76
2018-03-31T11:57:02.238Z,3.72
2018-03-31T12:02:45.720Z,3.91
2018-03-31T12:05:18.871Z,3.92
2018-03-31T12:07:48.896Z,3.97
2018-03-31T12:10:19.397Z,4.01
2018-03-31T12:12:49.126Z,4.08
2018-03-31T12:15:26.220Z,4.15
2018-03-31T12:17:53.410Z,4.23
2018-03-31T12:20:20.548Z,4.27
2018-03-31T12:22:50.315Z,4.30
2018-03-31T12:31:01.708Z,4.48
2018-03-31T12:33:34.295Z,4.54
2018-03-31T12:36:05.675Z,4.59
2018-03-31T12:41:31.485Z,4.63
2018-03-31T12:46:39.598Z,4.61
2018-03-31T12:49:08.259Z,4.66
2018-03-31T12:51:36.085Z,4.66
2018-03-31T12:54:03.214Z,4.68
2018-03-31T12:56:30.365Z,4.75
2018-03-31T12:59:03.899Z,4.70
2018-03-31T13:01:31.548Z,4.69
2018-03-31T13:03:58.662Z,4.61
2018-03-31T13:06:25.782Z,4.57
2018-03-31T13:08:52.925Z,4.66
2018-03-31T13:11:20.047Z,4.68
2018-03-31T13:13:47.223Z,4.64
2018-03-31T13:16:14.400Z,4.62
2018-03-31T13:18:41.561Z,4.62
2018-03-31T13:21:08.680Z,4.49
2018-03-31T13:23:35.842Z,4.27
2018-03-31T13:26:02.963Z,4.17
2018-03-31T13:28:30.134Z,4.11
2018-03-31T13:30:57.258Z,4.10
2018-03-31T13:33:24.417Z,4.07
2018-03-31T13:35:51.585Z,3.95
2018-03-31T13:38:18.719Z,3.87
2018-03-31T13:40:45.817Z,3.81
2018-03-31T13:43:13.030Z,3.77
2018-03-31T13:45:40.169Z,3.68
2018-03-31T13:48:07.387Z,3.63
2018-03-31T13:50:34.528Z,3.51
2018-03-31T13:53:01.723Z,3.49
2018-03-31T13:55:28.839Z,3.37
2018-03-31T13:57:56.017Z,3.25
2018-03-31T14:00:23.164Z,3.12
2018-03-31T14:02:50.362Z,3.03
2018-03-31T14:05:17.481Z,2.99
2018-03-31T14:07:44.655Z,2.93
2018-03-31T14:10:11.792Z,2.92
2018-03-31T14:12:39.022Z,2.86
2018-03-31T14:15:06.151Z,2.76
2018-03-31T14:17:33.311Z,2.79
2018-03-31T14:20:00.680Z,2.73
2018-03-31T14:22:27.823Z,2.86
2018-03-31T14:24:55.000Z,2.65
2018-03-31T14:27:22.181Z,2.55
2018-03-31T14:29:49.309Z,2.52
2018-03-31T14:32:16.509Z,2.44
2018-03-31T14:34:43.638Z,2.46
2018-03-31T14:37:10.782Z,2.65
2018-03-31T14:39:37.961Z,2.58
2018-03-31T14:42:05.074Z,2.54
2018-03-31T14:44:32.249Z,2.48
2018-03-31T14:46:59.427Z,2.46
2018-03-31T14:49:26.605Z,2.44
2018-03-31T14:51:53.746Z,2.44
2018-03-31T14:54:20.918Z,2.42
2018-03-31T14:56:48.048Z,2.44
2018-03-31T14:59:15.206Z,2.41
2018-03-31T15:01:42.342Z,2.46
2018-03-31T15:04:09.519Z,2.53
2018-03-31T15:06:36.642Z,2.54
2018-03-31T15:09:03.801Z,2.55
2018-03-31T15:11:30.950Z,2.56
2018-03-31T15:13:58.104Z,2.54
2018-03-31T15:16:25.208Z,2.49
2018-03-31T15:18:52.368Z,2.47
2018-03-31T15:21:19.492Z,2.45
2018-03-31T15:23:46.660Z,2.49
2018-03-31T15:26:13.916Z,2.49
2018-03-31T15:28:41.168Z,2.49
2018-03-31T15:31:08.245Z,2.51
2018-03-31T15:33:35.410Z,2.51
2018-03-31T15:36:02.579Z,2.52
2018-03-31T15:38:29.720Z,2.50
2018-03-31T15:40:56.846Z,2.50
2018-03-31T15:43:33.245Z,2.48
2018-03-31T15:46:01.127Z,2.49
2018-03-31T15:48:37.898Z,2.49
2018-03-31T15:51:05.760Z,2.50
2018-03-31T15:53:32.899Z,2.50
2018-03-31T15:56:00.034Z,2.49
2018-03-31T15:58:27.195Z,2.48
2018-03-31T16:00:54.335Z,2.42
2018-03-31T16:03:21.519Z,2.46
2018-03-31T16:05:48.634Z,2.40
2018-03-31T16:08:15.799Z,2.43
2018-03-31T16:10:43.035Z,2.45
2018-03-31T16:13:10.142Z,2.48
2018-03-31T16:15:37.301Z,2.42
2018-03-31T16:18:04.442Z,2.42
2018-03-31T16:20:31.635Z,2.44
2018-03-31T16:22:58.731Z,2.41
2018-03-31T16:25:25.875Z,2.39
2018-03-31T16:27:52.981Z,2.37
2018-03-31T16:30:20.120Z,2.36
2018-03-31T16:32:47.287Z,2.37
2018-03-31T16:35:16.689Z,2.39
2018-03-31T16:37:43.864Z,2.36
2018-03-31T16:40:11.834Z,2.32
2018-03-31T16:42:38.982Z,2.32
2018-03-31T16:45:06.189Z,2.33
2018-03-31T16:47:33.990Z,2.32
2018-03-31T16:50:01.200Z,2.35
2018-03-31T16:52:28.345Z,2.37
2018-03-31T16:54:55.518Z,2.38
2018-03-31T16:57:22.663Z,2.36
2018-03-31T16:59:49.831Z,2.31
2018-03-31T17:02:16.993Z,2.33
2018-03-31T17:04:44.156Z,2.32
2018-03-31T17:07:11.274Z,2.34
2018-03-31T17:09:38.437Z,2.38
2018-03-31T17:12:05.828Z,2.29
2018-03-31T17:14:33.007Z,2.31
2018-03-31T17:17:00.133Z,2.28
2018-03-31T17:19:27.303Z,2.29
2018-03-31T17:21:54.416Z,2.28
2018-03-31T17:24:21.560Z,2.29
2018-03-31T17:26:48.676Z,2.24
2018-03-31T17:29:15.877Z,2.20
2018-03-31T17:31:43.019Z,2.29
2018-03-31T17:34:17.143Z,2.28
2018-03-31T17:36:54.895Z,2.22
2018-03-31T17:39:28.064Z,2.26
2018-03-31T17:41:55.431Z,2.22
2018-03-31T17:44:22.602Z,2.22
2018-03-31T17:46:49.922Z,2.22
2018-03-31T17:49:22.511Z,2.26
2018-03-31T17:52:00.275Z,2.27
2018-03-31T17:54:28.662Z,2.24
2018-03-31T17:56:55.755Z,2.28
2018-03-31T17:59:22.945Z,2.29
2018-03-31T18:01:50.081Z,2.26
2018-03-31T18:04:17.276Z,2.18
2018-03-31T18:06:44.488Z,2.20
2018-03-31T18:09:11.647Z,2.19
2018-03-31T18:11:43.234Z,2.25
2018-03-31T18:14:21.876Z,2.31
2018-03-31T18:17:01.487Z,2.26
2018-03-31T18:19:47.296Z,2.21
2018-03-31T18:22:27.569Z,2.30
2018-03-31T18:25:05.656Z,2.29
2018-03-31T18:27:38.096Z,2.28
2018-03-31T18:30:12.450Z,2.27
2018-03-31T18:32:40.067Z,2.26
2018-03-31T18:35:07.226Z,2.28
2018-03-31T18:37:34.355Z,2.25
2018-03-31T18:40:01.493Z,2.23
2018-03-31T18:42:28.633Z,2.25
2018-03-31T18:44:55.802Z,2.19
2018-03-31T18:47:22.949Z,2.16
2018-03-31T18:49:50.126Z,2.23
2018-03-31T18:52:17.251Z,2.20
2018-03-31T18:54:44.365Z,2.17
2018-03-31T18:57:11.582Z,2.19
2018-03-31T18:59:38.835Z,2.14
2018-03-31T19:02:06.033Z,2.11
2018-03-31T19:04:33.199Z,2.16
2018-03-31T19:07:00.422Z,2.10
2018-03-31T19:09:27.559Z,2.10
2018-03-31T19:11:54.760Z,2.11
2018-03-31T19:14:21.909Z,2.07
2018-03-31T19:16:54.655Z,2.08
2018-03-31T19:19:21.801Z,2.07
2018-03-31T19:21:48.961Z,2.04
2018-03-31T19:24:16.107Z,2.07
2018-03-31T19:26:43.360Z,2.05
2018-03-31T19:29:10.543Z,2.06
2018-03-31T19:31:37.740Z,2.08
2018-03-31T19:34:04.893Z,2.09
2018-03-31T19:36:32.210Z,2.12
2018-03-31T19:38:59.381Z,2.05
2018-03-31T19:41:26.570Z,2.08
2018-03-31T19:43:53.761Z,2.04
2018-03-31T19:46:20.921Z,2.08
2018-03-31T19:48:48.069Z,2.06
2018-03-31T19:51:15.289Z,2.06
2018-03-31T19:53:43.504Z,2.04
2018-03-31T19:56:10.718Z,2.02
2018-03-31T19:58:37.862Z,2.03
2018-03-31T20:01:05.040Z,2.06
2018-03-31T20:03:32.188Z,2.06
2018-03-31T20:05:59.410Z,2.03
2018-03-31T20:08:26.602Z,2.04
2018-03-31T20:10:53.770Z,2.02
2018-03-31T20:13:20.858Z,2.03
2018-03-31T20:15:48.066Z,2.11
2018-03-31T20:18:15.171Z,2.09
2018-03-31T20:20:42.393Z,2.00
2018-03-31T20:23:09.522Z,2.08
2018-03-31T20:25:36.740Z,2.09
2018-03-31T20:28:03.950Z,2.08
2018-03-31T20:30:31.088Z,2.14
2018-03-31T20:32:58.296Z,2.04
2018-03-31T20:35:25.425Z,2.04
2018-03-31T20:37:52.623Z,2.01
2018-03-31T20:40:19.796Z,2.05
2018-03-31T20:42:46.981Z,2.02
2018-03-31T20:45:14.147Z,2.06
2018-03-31T20:47:41.338Z,2.09
2018-03-31T20:50:08.424Z,2.10
2018-03-31T20:52:35.621Z,2.08
2018-03-31T20:55:02.751Z,2.02
2018-03-31T20:57:29.954Z,2.03
2018-03-31T20:59:57.094Z,2.03
2018-03-31T21:02:24.290Z,2.07
2018-03-31T21:04:51.445Z,2.06
2018-03-31T21:07:18.674Z,2.09
2018-03-31T21:09:45.850Z,2.05
2018-03-31T21:12:13.078Z,2.07
2018-03-31T21:14:40.215Z,2.08
2018-03-31T21:17:07.424Z,2.10
2018-03-31T21:19:34.597Z,2.10
2018-03-31T21:22:01.769Z,2.12
2018-03-31T21:24:28.964Z,2.19
2018-03-31T21:26:56.107Z,2.17
2018-03-31T21:29:23.253Z,2.15
2018-03-31T21:31:50.425Z,2.17
2018-03-31T21:37:08.065Z,2.10
2018-03-31T21:39:35.241Z,2.15
2018-03-31T21:42:02.458Z,2.13
2018-03-31T21:44:29.567Z,2.10
2018-03-31T21:46:56.785Z,2.14
2018-03-31T21:49:23.975Z,2.10
2018-03-31T21:51:51.199Z,2.13
2018-03-31T21:54:18.325Z,2.12
2018-03-31T21:56:45.541Z,2.14
2018-03-31T21:59:12.671Z,2.14
2018-03-31T22:01:39.873Z,2.13
2018-03-31T22:04:07.025Z,2.09
2018-03-31T22:06:34.214Z,2.15
2018-03-31T22:09:01.373Z,2.17
2018-03-31T22:11:28.540Z,2.13
2018-03-31T22:14:01.273Z,2.14
2018-03-31T22:16:28.394Z,2.08
2018-03-31T22:18:55.602Z,2.18
2018-03-31T22:21:22.741Z,2.20
2018-03-31T22:23:49.932Z,2.17
2018-03-31T22:26:17.145Z,2.11
2018-03-31T22:28:44.360Z,2.13
2018-03-31T22:31:11.525Z,2.20
2018-03-31T22:33:38.741Z,2.18
2018-03-31T22:36:05.867Z,2.15
2018-03-31T22:38:33.003Z,2.08
2018-03-31T22:41:00.078Z,2.12
2018-03-31T22:43:27.246Z,2.14
2018-03-31T22:45:54.343Z,2.17
2018-03-31T22:48:21.466Z,2.14
2018-03-31T22:50:48.592Z,2.16
2018-03-31T22:53:15.730Z,2.13
2018-03-31T22:55:42.843Z,2.12
2018-03-31T22:58:15.875Z,2.08
2018-03-31T23:00:43.281Z,2.06
2018-03-31T23:03:10.435Z,2.15
2018-03-31T23:05:37.526Z,2.16
2018-03-31T23:08:04.702Z,2.16
2018-03-31T23:10:31.823Z,2.13
2018-03-31T23:12:58.997Z,2.13
2018-03-31T23:15:26.126Z,2.14
2018-03-31T23:17:53.286Z,2.14
2018-03-31T23:20:20.427Z,2.09
2018-03-31T23:22:47.612Z,2.10
2018-03-31T23:25:14.733Z,2.17
2018-03-31T23:27:41.872Z,2.13
2018-03-31T23:30:09.037Z,2.14
2018-03-31T23:32:36.178Z,2.14
2018-03-31T23:35:03.278Z,2.14
2018-03-31T23:37:30.414Z,2.13
2018-03-31T23:39:57.535Z,2.12
2018-03-31T23:42:24.657Z,2.15
2018-03-31T23:44:51.782Z,2.16
2018-03-31T23:47:18.911Z,2.09
2018-03-31T23:49:46.048Z,2.12
2018-03-31T23:52:13.137Z,2.16
2018-03-31T23:54:40.288Z,2.15
2018-03-31T23:57:07.373Z,2.15
2018-03-31T23:59:34.534Z,2.08
